createdAt,value
2022-08-16T00:00:48.583Z,96961.88
2022-08-16T00:02:53.502Z,96956.91
2022-08-16T00:04:54.851Z,96963.00
2022-08-16T00:07:01.550Z,96965.69
2022-08-16T00:09:04.255Z,96953.88
2022-08-16T00:11:05.938Z,96958.22
2022-08-16T00:13:07.260Z,96954.91
2022-08-16T00:15:11.774Z,96964.47
2022-08-16T00:17:18.570Z,96962.88
2022-08-16T00:19:22.504Z,96962.53
2022-08-16T00:21:24.084Z,96962.59
2022-08-16T00:23:34.954Z,96965.16
2022-08-16T00:26:35.308Z,96962.75
2022-08-16T00:28:08.018Z,96962.03
2022-08-16T00:30:19.880Z,96971.53
2022-08-16T00:32:33.006Z,96963.09
2022-08-16T00:34:44.000Z,96967.38
2022-08-16T00:36:47.142Z,96965.78
2022-08-16T00:38:48.814Z,96960.81
2022-08-16T00:40:50.789Z,96961.66
2022-08-16T00:42:55.201Z,96957.41
2022-08-16T00:44:56.502Z,96965.19
2022-08-16T00:47:06.181Z,96966.91
2022-08-16T00:49:17.359Z,96966.13
2022-08-16T00:51:21.006Z,96966.91
2022-08-16T00:53:22.311Z,96963.66
2022-08-16T00:55:23.680Z,96974.03
2022-08-16T00:57:24.996Z,96963.81
2022-08-16T00:59:27.508Z,96968.44
2022-08-16T01:01:28.880Z,96971.75
2022-08-16T01:03:31.819Z,96973.50
2022-08-16T01:05:36.496Z,96976.84
2022-08-16T01:07:51.657Z,96980.19
2022-08-16T01:09:54.714Z,96979.41
2022-08-16T01:11:56.255Z,96977.78
2022-08-16T01:13:58.197Z,96976.13
2022-08-16T01:16:01.124Z,96975.22
2022-08-16T01:18:04.444Z,96977.00
2022-08-16T01:20:23.650Z,96988.00
2022-08-16T01:22:48.280Z,96983.81
2022-08-16T01:24:55.265Z,96980.50
2022-08-16T01:26:56.963Z,96981.47
2022-08-16T01:29:05.382Z,96988.34
2022-08-16T01:31:11.389Z,96980.81
2022-08-16T01:33:14.748Z,96985.03
2022-08-16T01:35:17.757Z,96978.25
2022-08-16T01:37:19.178Z,96986.84
2022-08-16T01:39:22.678Z,96990.38
2022-08-16T01:41:24.619Z,96983.56
2022-08-16T01:43:26.099Z,96988.69
2022-08-16T01:45:40.713Z,96995.63
2022-08-16T01:47:49.446Z,97013.56
2022-08-16T01:51:05.052Z,97006.81
2022-08-16T01:52:29.266Z,97004.31
2022-08-16T01:54:31.483Z,96995.81
2022-08-16T01:56:32.838Z,96993.31
2022-08-16T01:58:37.298Z,96989.91
2022-08-16T02:00:38.750Z,96985.78
2022-08-16T02:02:42.453Z,96984.03
2022-08-16T02:04:49.517Z,96992.59
2022-08-16T02:06:56.023Z,96988.44
2022-08-16T02:08:57.772Z,96991.94
2022-08-16T02:11:00.702Z,96985.13
2022-08-16T02:13:02.531Z,96996.25
2022-08-16T02:15:05.148Z,96997.94
2022-08-16T02:17:06.459Z,97004.22
2022-08-16T02:19:13.595Z,96997.22
2022-08-16T02:21:31.569Z,97004.84
2022-08-16T02:23:33.138Z,97003.63
2022-08-16T02:25:50.621Z,97006.94
2022-08-16T02:27:53.319Z,97008.75
2022-08-16T02:30:05.300Z,97007.19
2022-08-16T02:32:49.280Z,97014.03
2022-08-16T02:34:34.709Z,97016.59
2022-08-16T02:36:49.352Z,97015.06
2022-08-16T02:38:52.055Z,97018.47
2022-08-16T02:40:54.336Z,97017.63
2022-08-16T02:42:56.126Z,97021.06
2022-08-16T02:44:57.455Z,97018.50
2022-08-16T02:46:59.659Z,97024.53
2022-08-16T02:49:03.774Z,97022.94
2022-08-16T02:51:10.802Z,97023.72
2022-08-16T02:53:12.926Z,97024.78
2022-08-16T02:55:15.606Z,97029.84
2022-08-16T02:57:17.174Z,97027.16
2022-08-16T02:59:19.503Z,97034.13
2022-08-16T03:01:24.683Z,97031.56
2022-08-16T03:04:39.639Z,97031.72
2022-08-16T03:05:58.257Z,97037.78
2022-08-16T03:07:59.780Z,97028.44
2022-08-16T03:10:01.291Z,97033.94
2022-08-16T03:12:02.692Z,97027.22
2022-08-16T03:14:07.526Z,97019.75
2022-08-16T03:16:32.985Z,97026.63
2022-08-16T03:18:34.242Z,97020.47
2022-08-16T03:20:41.947Z,97023.78
2022-08-16T03:22:45.327Z,97024.66
2022-08-16T03:24:46.946Z,97034.28
2022-08-16T03:26:48.301Z,97032.41
2022-08-16T03:28:52.767Z,97038.50
2022-08-16T03:30:54.065Z,97042.91
2022-08-16T03:32:56.750Z,97045.19
2022-08-16T03:34:58.570Z,97058.72
2022-08-16T03:37:00.753Z,97047.53
2022-08-16T03:39:03.422Z,97048.38
2022-08-16T03:41:05.551Z,97050.34
2022-08-16T03:43:51.070Z,97053.75
2022-08-16T03:45:48.014Z,97052.94
2022-08-16T03:47:51.207Z,97060.41
2022-08-16T03:50:01.077Z,97060.44
2022-08-16T03:52:04.350Z,97063.09
2022-08-16T03:54:12.655Z,97063.13
2022-08-16T03:56:19.659Z,97063.72
2022-08-16T03:58:22.287Z,97065.69
2022-08-16T04:00:36.067Z,97070.88
2022-08-16T04:02:42.776Z,97063.22
2022-08-16T04:04:44.154Z,97059.78
2022-08-16T04:06:45.463Z,97061.50
2022-08-16T04:08:48.071Z,97071.69
2022-08-16T04:10:49.512Z,97066.63
2022-08-16T04:13:00.589Z,97066.94
2022-08-16T04:15:07.837Z,97067.44
2022-08-16T04:17:09.656Z,97067.53
2022-08-16T04:19:10.967Z,97068.53
2022-08-16T04:21:12.315Z,97070.19
2022-08-16T04:23:30.582Z,97077.69
2022-08-16T04:25:31.924Z,97078.75
2022-08-16T04:27:33.261Z,97083.03
2022-08-16T04:29:43.725Z,97078.94
2022-08-16T04:31:45.687Z,97085.69
2022-08-16T04:33:50.873Z,97083.22
2022-08-16T04:35:53.813Z,97086.63
2022-08-16T04:37:55.442Z,97078.75
2022-08-16T04:39:57.287Z,97079.53
2022-08-16T04:41:59.387Z,97082.88
2022-08-16T04:44:32.379Z,97090.44
2022-08-16T04:47:01.094Z,97092.94
2022-08-16T04:48:55.405Z,97099.75
2022-08-16T04:50:59.272Z,97109.03
2022-08-16T04:53:00.623Z,97108.03
2022-08-16T04:55:02.552Z,97107.06
2022-08-16T04:57:04.960Z,97113.84
2022-08-16T04:59:08.370Z,97115.72
2022-08-16T05:01:09.966Z,97119.97
2022-08-16T05:03:12.544Z,97112.34
2022-08-16T05:05:17.283Z,97113.25
2022-08-16T05:07:20.527Z,97115.81
2022-08-16T05:09:23.015Z,97120.25
2022-08-16T05:11:27.128Z,97110.91
2022-08-16T05:13:40.614Z,97116.81
2022-08-16T05:15:43.306Z,97125.63
2022-08-16T05:17:45.178Z,97123.91
2022-08-16T05:19:57.356Z,97126.50
2022-08-16T05:21:59.702Z,97133.22
2022-08-16T05:24:01.929Z,97132.34
2022-08-16T05:26:09.177Z,97143.41
2022-08-16T05:28:21.443Z,97144.88
2022-08-16T05:30:34.416Z,97148.13
2022-08-16T05:32:45.662Z,97151.53
2022-08-16T05:34:47.223Z,97150.66
2022-08-16T05:36:53.079Z,97147.13
2022-08-16T05:38:54.443Z,97146.25
2022-08-16T05:40:59.621Z,97151.41
2022-08-16T05:43:03.446Z,97142.88
2022-08-16T05:45:06.880Z,97147.97
2022-08-16T05:47:08.383Z,97147.69
2022-08-16T05:49:10.002Z,97151.56
2022-08-16T05:51:11.332Z,97145.13
2022-08-16T05:53:32.708Z,97142.56
2022-08-16T05:55:40.555Z,97143.50
2022-08-16T05:57:42.223Z,97143.53
2022-08-16T05:59:44.039Z,97153.59
2022-08-16T06:01:45.422Z,97161.06
2022-08-16T06:03:46.790Z,97159.16
2022-08-16T06:05:49.303Z,97158.19
2022-08-16T06:07:59.249Z,97150.59
2022-08-16T06:10:00.787Z,97154.00
2022-08-16T06:12:02.484Z,97156.69
2022-08-16T06:14:03.790Z,97161.53
2022-08-16T06:16:06.685Z,97157.00
2022-08-16T06:18:08.078Z,97175.75
2022-08-16T06:22:10.767Z,97162.50
2022-08-16T06:24:54.476Z,97159.09
2022-08-16T06:26:57.980Z,97169.28
2022-08-16T06:28:59.702Z,97167.53
2022-08-16T06:31:01.337Z,97169.22
2022-08-16T06:33:04.111Z,97170.09
2022-08-16T06:35:05.438Z,97173.50
2022-08-16T06:37:07.549Z,97171.78
2022-08-16T06:39:08.983Z,97165.78
2022-08-16T06:41:13.472Z,97170.84
2022-08-16T06:43:15.126Z,97167.41
2022-08-16T06:45:17.894Z,97174.16
2022-08-16T06:47:19.219Z,97171.59
2022-08-16T06:49:22.037Z,97172.44
2022-08-16T06:51:23.343Z,97172.44
2022-08-16T06:53:44.626Z,97176.72
2022-08-16T06:55:45.932Z,97181.00
2022-08-16T06:57:47.927Z,97171.56
2022-08-16T06:59:53.302Z,97182.44
2022-08-16T07:01:59.934Z,97174.50
2022-08-16T07:04:01.460Z,97187.31
2022-08-16T07:06:02.786Z,97182.31
2022-08-16T07:08:04.851Z,97184.28
2022-08-16T07:10:08.694Z,97179.66
2022-08-16T07:12:10.872Z,97181.19
2022-08-16T07:14:25.148Z,97183.47
2022-08-16T07:16:28.202Z,97185.38
2022-08-16T07:18:29.524Z,97185.88
2022-08-16T07:20:36.119Z,97190.53
2022-08-16T07:22:53.017Z,97196.06
2022-08-16T07:25:01.345Z,97189.59
2022-08-16T07:27:03.040Z,97186.25
2022-08-16T07:29:04.376Z,97192.34
2022-08-16T07:31:13.066Z,97196.63
2022-08-16T07:33:48.144Z,97199.22
2022-08-16T07:35:44.454Z,97194.19
2022-08-16T07:37:50.730Z,97204.41
2022-08-16T07:39:54.749Z,97202.75
2022-08-16T07:41:56.279Z,97198.53
2022-08-16T07:43:59.834Z,97195.91
2022-08-16T07:46:01.335Z,97201.78
2022-08-16T07:48:11.837Z,97203.25
2022-08-16T07:50:54.987Z,97207.31
2022-08-16T07:52:38.847Z,97206.22
2022-08-16T07:54:45.940Z,97209.44
2022-08-16T07:56:50.265Z,97208.41
2022-08-16T07:58:55.534Z,97217.28
2022-08-16T08:01:01.613Z,97211.19
2022-08-16T08:03:03.288Z,97214.59
2022-08-16T08:05:04.595Z,97222.25
2022-08-16T08:07:08.921Z,97223.06
2022-08-16T08:09:10.491Z,97223.06
2022-08-16T08:11:12.917Z,97233.44
2022-08-16T08:13:19.565Z,97228.44
2022-08-16T08:15:40.855Z,97225.03
2022-08-16T08:17:54.615Z,97227.78
2022-08-16T08:19:55.921Z,97226.38
2022-08-16T08:22:00.779Z,97237.09
2022-08-16T08:24:03.366Z,97233.31
2022-08-16T08:26:17.697Z,97245.88
2022-08-16T08:28:20.020Z,97246.63
2022-08-16T08:31:00.685Z,97247.22
2022-08-16T08:32:58.179Z,97243.53
2022-08-16T08:35:03.942Z,97238.00
2022-08-16T08:37:05.914Z,97249.75
2022-08-16T08:39:12.956Z,97249.44
2022-08-16T08:41:15.455Z,97249.81
2022-08-16T08:43:20.440Z,97253.16
2022-08-16T08:45:46.677Z,97255.19
2022-08-16T08:47:44.710Z,97254.28
2022-08-16T08:49:59.984Z,97257.81
2022-08-16T08:52:02.095Z,97244.91
2022-08-16T08:54:09.758Z,97258.50
2022-08-16T08:56:23.461Z,97259.19
2022-08-16T08:58:34.055Z,97264.09
2022-08-16T09:00:51.062Z,97262.56
2022-08-16T09:02:52.976Z,97265.34
2022-08-16T09:04:54.857Z,97261.13
2022-08-16T09:07:01.357Z,97255.63
2022-08-16T09:09:03.327Z,97258.19
2022-08-16T09:11:04.875Z,97267.41
2022-08-16T09:13:08.778Z,97262.56
2022-08-16T09:15:13.612Z,97258.66
2022-08-16T09:17:38.251Z,97265.97
2022-08-16T09:19:40.794Z,97260.28
2022-08-16T09:21:42.536Z,97255.19
2022-08-16T09:23:44.022Z,97260.63
2022-08-16T09:25:48.251Z,97260.41
2022-08-16T09:27:57.046Z,97260.63
2022-08-16T09:30:00.819Z,97264.41
2022-08-16T09:32:04.103Z,97261.19
2022-08-16T09:34:09.305Z,97258.22
2022-08-16T09:36:32.246Z,97251.09
2022-08-16T09:38:35.365Z,97243.94
2022-08-16T09:40:42.887Z,97255.91
2022-08-16T09:42:56.111Z,97254.97
2022-08-16T09:45:12.740Z,97253.16
2022-08-16T09:47:23.376Z,97241.81
2022-08-16T09:49:26.245Z,97240.72
2022-08-16T09:51:38.624Z,97239.09
2022-08-16T09:53:39.930Z,97244.22
2022-08-16T09:55:44.505Z,97244.72
2022-08-16T09:57:53.014Z,97244.50
2022-08-16T09:59:56.262Z,97241.41
2022-08-16T10:01:57.921Z,97251.06
2022-08-16T10:04:01.579Z,97242.75
2022-08-16T10:06:04.296Z,97236.03
2022-08-16T10:08:26.924Z,97099.22
2022-08-16T10:10:30.424Z,97241.53
2022-08-16T10:12:55.756Z,97247.50
2022-08-16T10:14:58.154Z,97233.75
2022-08-16T10:17:02.250Z,97236.97
2022-08-16T10:19:06.899Z,97232.72
2022-08-16T10:21:09.307Z,97112.22
2022-08-16T10:23:17.309Z,97240.47
2022-08-16T10:27:17.135Z,97233.63
2022-08-16T10:27:46.125Z,97232.78
2022-08-16T10:30:00.004Z,97236.41
2022-08-16T10:32:03.548Z,97226.28
2022-08-16T10:34:04.966Z,97234.81
2022-08-16T10:36:39.029Z,97224.56
2022-08-16T10:38:42.023Z,97221.91
2022-08-16T10:40:45.496Z,97227.81
2022-08-16T10:42:49.627Z,97231.13
2022-08-16T10:44:54.639Z,97229.25
2022-08-16T10:46:56.336Z,97231.91
2022-08-16T10:48:57.946Z,97224.25
2022-08-16T10:51:02.279Z,97229.53
2022-08-16T10:53:07.566Z,97233.03
2022-08-16T10:57:33.267Z,97228.75
2022-08-16T10:59:43.902Z,97227.81
2022-08-16T11:06:36.889Z,97225.75
2022-08-16T11:08:44.933Z,97236.13
2022-08-16T11:11:06.528Z,97230.00
2022-08-16T11:15:29.759Z,97240.47
2022-08-16T11:17:44.868Z,97236.97
2022-08-16T11:22:39.293Z,97229.75
2022-08-16T11:24:42.123Z,97234.16
2022-08-16T11:26:45.061Z,97231.13
2022-08-16T11:29:15.130Z,97233.53
2022-08-16T11:31:16.607Z,97233.66
2022-08-16T11:33:18.262Z,97239.25
2022-08-16T11:35:43.354Z,97235.88
2022-08-16T11:40:03.702Z,97235.34
2022-08-16T11:42:07.682Z,97229.91
2022-08-16T11:44:52.875Z,97229.91
2022-08-16T11:46:48.992Z,97230.59
2022-08-16T11:48:51.790Z,97231.28
2022-08-16T11:50:53.199Z,97226.00
2022-08-16T11:52:54.508Z,97229.31
2022-08-16T11:54:57.187Z,97228.94
2022-08-16T11:57:01.594Z,97225.97
2022-08-16T11:59:02.908Z,97228.38
2022-08-16T12:01:04.384Z,97220.56
2022-08-16T12:03:05.689Z,97225.78
2022-08-16T12:05:10.099Z,97229.66
2022-08-16T12:07:11.418Z,97228.91
2022-08-16T12:09:17.368Z,97226.88
2022-08-16T12:11:18.902Z,97222.50
2022-08-16T12:13:23.755Z,97230.13
2022-08-16T12:15:26.505Z,97220.63
2022-08-16T12:17:31.866Z,97213.75
2022-08-16T12:19:35.701Z,97217.97
2022-08-16T12:21:58.464Z,97218.88
2022-08-16T12:23:58.774Z,97216.41
2022-08-16T12:26:00.096Z,97215.66
2022-08-16T12:28:02.870Z,97222.03
2022-08-16T12:30:04.326Z,97215.03
2022-08-16T12:32:27.042Z,97208.38
2022-08-16T12:34:29.392Z,97213.13
2022-08-16T12:36:30.918Z,97206.88
2022-08-16T12:38:41.270Z,97206.66
2022-08-16T12:40:50.866Z,97199.63
2022-08-16T12:42:54.893Z,97197.91
2022-08-16T12:45:00.531Z,97206.50
2022-08-16T12:47:20.702Z,97197.00
2022-08-16T12:49:24.282Z,97199.41
2022-08-16T12:51:32.870Z,97211.41
2022-08-16T12:53:48.164Z,97200.72
2022-08-16T12:55:51.040Z,97190.28
2022-08-16T12:57:57.943Z,97191.56
2022-08-16T13:00:00.275Z,97196.50
2022-08-16T13:02:01.603Z,97195.72
2022-08-16T13:04:12.009Z,97186.22
2022-08-16T13:06:21.525Z,97189.59
2022-08-16T13:08:35.014Z,97189.69
2022-08-16T13:10:39.233Z,97189.53
2022-08-16T13:12:42.789Z,97193.78
2022-08-16T13:14:44.343Z,97189.38
2022-08-16T13:16:45.742Z,97044.66
2022-08-16T13:18:52.836Z,97184.00
2022-08-16T13:20:55.826Z,97188.53
2022-08-16T13:22:58.483Z,97187.81
2022-08-16T13:24:59.875Z,97184.47
2022-08-16T13:27:01.214Z,97185.22
2022-08-16T13:29:02.556Z,97191.25
2022-08-16T13:31:04.282Z,97181.84
2022-08-16T13:33:10.806Z,97181.00
2022-08-16T13:35:14.568Z,97179.56
2022-08-16T13:37:15.912Z,97177.91
2022-08-16T13:39:19.739Z,97184.41
2022-08-16T13:41:22.123Z,97171.47
2022-08-16T13:43:23.555Z,97179.16
2022-08-16T13:45:25.874Z,97170.81
2022-08-16T13:47:30.029Z,97179.56
2022-08-16T13:49:31.741Z,97171.72
2022-08-16T13:51:36.976Z,97180.25
2022-08-16T13:53:41.201Z,97172.53
2022-08-16T13:55:42.582Z,97179.31
2022-08-16T13:58:34.388Z,97172.41
2022-08-16T14:00:05.265Z,97180.84
2022-08-16T14:02:07.912Z,97175.81
2022-08-16T14:04:09.303Z,97175.72
2022-08-16T14:06:20.159Z,97175.81
2022-08-16T14:08:26.610Z,97176.59
2022-08-16T14:10:28.594Z,97173.22
2022-08-16T14:12:29.966Z,97172.53
2022-08-16T14:14:31.473Z,97172.69
2022-08-16T14:16:34.767Z,97164.84
2022-08-16T14:18:36.231Z,97170.03
2022-08-16T14:20:38.012Z,97174.81
2022-08-16T14:22:39.882Z,97177.97
2022-08-16T14:24:41.513Z,97165.88
2022-08-16T14:26:46.742Z,97164.16
2022-08-16T14:28:50.379Z,97167.41
2022-08-16T14:30:52.199Z,97171.56
2022-08-16T14:32:54.633Z,97161.44
2022-08-16T14:34:56.075Z,97160.59
2022-08-16T14:36:59.651Z,97164.16
2022-08-16T14:39:01.063Z,97155.75
2022-08-16T14:41:02.417Z,97168.53
2022-08-16T14:43:05.606Z,97162.06
2022-08-16T14:45:08.976Z,97162.41
2022-08-16T14:47:10.283Z,97163.72
2022-08-16T14:49:14.402Z,97162.94
2022-08-16T14:51:15.932Z,97173.44
2022-08-16T14:53:17.492Z,97172.84
2022-08-16T14:55:19.530Z,97176.47
2022-08-16T14:57:22.050Z,97171.41
2022-08-16T14:59:26.214Z,97168.84
2022-08-16T15:01:57.640Z,97171.41
2022-08-16T15:03:49.014Z,97168.91
2022-08-16T15:05:56.615Z,97165.59
2022-08-16T15:07:57.965Z,97166.44
2022-08-16T15:10:01.207Z,97167.34
2022-08-16T15:12:03.171Z,97163.09
2022-08-16T15:14:06.378Z,97166.59
2022-08-16T15:16:07.751Z,97163.88
2022-08-16T15:18:12.156Z,97169.81
2022-08-16T15:20:13.698Z,97173.31
2022-08-16T15:22:19.511Z,97171.41
2022-08-16T15:24:22.637Z,97165.31
2022-08-16T15:26:34.810Z,97158.44
2022-08-16T15:28:45.454Z,97156.69
2022-08-16T15:30:59.557Z,97161.84
2022-08-16T15:33:02.108Z,97159.34
2022-08-16T15:35:04.640Z,97164.34
2022-08-16T15:37:06.091Z,97160.09
2022-08-16T15:39:27.950Z,97162.66
2022-08-16T15:41:28.692Z,97166.13
2022-08-16T15:43:39.307Z,97170.44
2022-08-16T15:46:00.200Z,97165.31
2022-08-16T15:48:05.563Z,97164.53
2022-08-16T15:50:06.960Z,97181.00
2022-08-16T15:52:11.116Z,97175.19
2022-08-16T15:54:21.486Z,97180.16
2022-08-16T15:56:31.906Z,97177.50
2022-08-16T15:58:35.535Z,97174.19
2022-08-16T16:00:40.134Z,97175.13
2022-08-16T16:02:41.521Z,97174.19
2022-08-16T16:04:42.829Z,97174.19
2022-08-16T16:06:48.723Z,97170.78
2022-08-16T16:08:58.362Z,97175.25
2022-08-16T16:10:59.956Z,97173.66
2022-08-16T16:13:05.304Z,97175.44
2022-08-16T16:15:10.247Z,97177.25
2022-08-16T16:17:16.543Z,97172.28
2022-08-16T16:19:18.755Z,97174.78
2022-08-16T16:21:22.512Z,97171.31
2022-08-16T16:23:26.629Z,97169.56
2022-08-16T16:25:30.578Z,97171.38
2022-08-16T16:27:32.086Z,97172.28
2022-08-16T16:29:37.106Z,97168.88
2022-08-16T16:31:41.590Z,97175.75
2022-08-16T16:33:47.587Z,97169.84
2022-08-16T16:35:55.382Z,97168.97
2022-08-16T16:37:58.139Z,97165.66
2022-08-16T16:39:59.780Z,97172.50
2022-08-16T16:42:01.151Z,97170.97
2022-08-16T16:44:05.531Z,97174.59
2022-08-16T16:46:39.242Z,97171.94
2022-08-16T16:48:35.046Z,97168.56
2022-08-16T16:50:37.024Z,97171.94
2022-08-16T16:52:44.632Z,97170.22
2022-08-16T16:54:49.107Z,97167.75
2022-08-16T16:56:51.137Z,97171.19
2022-08-16T16:59:01.019Z,97172.88
2022-08-16T17:01:02.902Z,97168.63
2022-08-16T17:03:05.481Z,97176.31
2022-08-16T17:05:08.499Z,97168.72
2022-08-16T17:07:10.571Z,97180.75
2022-08-16T17:09:12.296Z,97176.47
2022-08-16T17:11:14.048Z,97170.50
2022-08-16T17:13:16.079Z,97174.81
2022-08-16T17:15:17.798Z,97178.28
2022-08-16T17:17:19.148Z,97174.03
2022-08-16T17:19:21.936Z,97174.94
2022-08-16T17:21:25.094Z,97179.25
2022-08-16T17:25:52.156Z,97180.22
2022-08-16T17:27:53.719Z,97182.03
2022-08-16T17:29:55.064Z,97179.50
2022-08-16T17:31:56.481Z,97189.78
2022-08-16T17:34:28.995Z,97189.78
2022-08-16T17:36:36.577Z,97189.84
2022-08-16T17:39:26.679Z,97177.56
2022-08-16T17:39:27.328Z,97189.03
2022-08-16T17:40:59.925Z,97200.16
2022-08-16T17:43:02.007Z,97203.66
2022-08-16T17:45:03.900Z,97203.69
2022-08-16T17:47:05.220Z,97214.09
2022-08-16T17:49:06.553Z,97206.38
2022-08-16T17:51:07.923Z,97211.53
2022-08-16T17:53:09.236Z,97209.88
2022-08-16T17:55:12.352Z,97217.56
2022-08-16T17:57:13.654Z,97212.50
2022-08-16T17:59:18.377Z,97215.97
2022-08-16T18:01:19.741Z,97222.00
2022-08-16T18:04:02.463Z,97220.31
2022-08-16T18:05:44.410Z,97219.56
2022-08-16T18:07:45.750Z,97225.66
2022-08-16T18:09:48.111Z,97223.09
2022-08-16T18:11:49.501Z,97227.38
2022-08-16T18:13:50.998Z,97234.22
2022-08-16T18:15:52.487Z,97233.38
2022-08-16T18:17:53.820Z,97232.59
2022-08-16T18:19:55.132Z,97244.59
2022-08-16T18:22:15.335Z,97246.38
2022-08-16T18:24:16.736Z,97249.03
2022-08-16T18:26:18.075Z,97252.47
2022-08-16T18:28:19.443Z,97250.00
2022-08-16T18:30:20.738Z,97258.53
2022-08-16T18:32:24.925Z,97262.06
2022-08-16T18:34:26.540Z,97262.94
2022-08-16T18:36:27.855Z,97264.75
2022-08-16T18:38:30.177Z,97266.47
2022-08-16T18:40:31.607Z,97282.69
2022-08-16T18:42:32.911Z,97276.72
2022-08-16T18:44:35.208Z,97281.00
2022-08-16T18:46:36.584Z,97283.66
2022-08-16T18:48:37.882Z,97285.38
2022-08-16T18:51:01.412Z,97286.25
2022-08-16T18:53:00.556Z,97284.66
2022-08-16T18:55:14.186Z,97294.13
2022-08-16T18:57:16.093Z,97286.50
2022-08-16T18:59:17.972Z,97287.47
2022-08-16T19:01:20.754Z,97290.09
2022-08-16T19:03:22.172Z,97298.69
2022-08-16T19:05:23.495Z,97295.34
2022-08-16T19:07:29.672Z,97296.31
2022-08-16T19:09:33.011Z,97300.59
2022-08-16T19:11:35.019Z,97309.19
2022-08-16T19:13:36.359Z,97304.88
2022-08-16T19:15:37.666Z,97303.25
2022-08-16T19:17:39.010Z,97310.97
2022-08-16T19:19:40.309Z,97305.09
2022-08-16T19:21:41.642Z,97308.53
2022-08-16T19:23:43.038Z,97311.06
2022-08-16T19:25:47.883Z,97311.09
2022-08-16T19:27:51.253Z,97308.69
2022-08-16T19:29:53.749Z,97315.53
2022-08-16T19:31:55.155Z,97319.06
2022-08-16T19:33:56.881Z,97317.38
2022-08-16T19:35:58.391Z,97316.53
2022-08-16T19:37:59.891Z,97321.72
2022-08-16T19:40:01.406Z,97319.09
2022-08-16T19:42:02.782Z,97318.25
2022-08-16T19:44:04.104Z,97321.72
2022-08-16T19:46:05.515Z,97326.84
2022-08-16T19:48:06.850Z,97321.72
2022-08-16T19:50:08.215Z,97321.78
2022-08-16T19:52:09.521Z,97320.00
2022-08-16T19:54:10.828Z,97324.41
2022-08-16T19:56:12.162Z,97323.47
2022-08-16T19:58:13.515Z,97321.84
2022-08-16T20:00:15.377Z,97320.13
2022-08-16T20:02:25.602Z,97321.97
2022-08-16T20:04:38.736Z,97322.84
2022-08-16T20:06:40.091Z,97330.63
2022-08-16T20:08:41.447Z,97327.22
2022-08-16T20:10:42.858Z,97328.13
2022-08-16T20:12:44.176Z,97334.22
2022-08-16T20:15:03.504Z,97326.69
2022-08-16T20:17:04.808Z,97330.22
2022-08-16T20:19:06.114Z,97329.25
2022-08-16T20:21:07.471Z,97335.31
2022-08-16T20:23:14.357Z,97330.31
2022-08-16T20:25:28.073Z,97338.91
2022-08-16T20:27:29.840Z,97337.97
2022-08-16T20:29:31.180Z,97342.34
2022-08-16T20:31:32.757Z,97344.97
2022-08-16T20:33:34.107Z,97334.00
2022-08-16T20:35:35.408Z,97338.41
2022-08-16T20:37:38.344Z,97346.16
2022-08-16T20:39:39.813Z,97343.50
2022-08-16T20:41:41.171Z,97340.97
2022-08-16T20:43:42.523Z,97348.75
2022-08-16T20:45:44.396Z,97344.53
2022-08-16T20:47:45.695Z,97341.88
2022-08-16T20:49:47.006Z,97342.81
2022-08-16T20:51:51.797Z,97345.41
2022-08-16T20:53:54.923Z,97343.81
2022-08-16T20:55:56.690Z,97343.81
2022-08-16T20:57:58.015Z,97350.78
2022-08-16T20:59:59.347Z,97350.00
2022-08-16T21:02:00.827Z,97346.50
2022-08-16T21:04:02.188Z,97348.41
2022-08-16T21:06:03.549Z,97351.69
2022-08-16T21:08:27.912Z,97351.72
2022-08-16T21:10:26.638Z,97350.19
2022-08-16T21:12:27.995Z,97349.25
2022-08-16T21:14:35.555Z,97353.44
2022-08-16T21:16:36.944Z,97349.16
2022-08-16T21:18:38.706Z,97348.09
2022-08-16T21:20:40.077Z,97350.66
2022-08-16T21:22:41.441Z,97344.25
2022-08-16T21:24:42.986Z,97344.47
2022-08-16T21:26:55.026Z,97347.03
2022-08-16T21:28:57.052Z,97342.50
2022-08-16T21:30:58.473Z,97347.56
2022-08-16T21:32:59.775Z,97349.88
2022-08-16T21:35:01.131Z,97355.81
2022-08-16T21:37:02.460Z,97355.28
2022-08-16T21:39:05.148Z,97363.13
2022-08-16T21:41:06.506Z,97353.66
2022-08-16T21:43:07.841Z,97357.88
2022-08-16T21:45:09.205Z,97356.28
2022-08-16T21:47:10.524Z,97350.69
2022-08-16T21:49:11.926Z,97356.41
2022-08-16T21:51:13.286Z,97349.97
2022-08-16T21:53:14.638Z,97343.50
2022-08-16T21:55:15.930Z,97356.06
2022-08-16T21:57:21.952Z,97340.06
2022-08-16T21:59:23.299Z,97338.59
2022-08-16T22:01:24.716Z,97346.25
2022-08-16T22:03:26.050Z,97344.97
2022-08-16T22:05:27.413Z,97350.50
2022-08-16T22:07:28.719Z,97338.72
2022-08-16T22:09:30.058Z,97337.78
2022-08-16T22:11:31.411Z,97345.66
2022-08-16T22:13:32.735Z,97332.91
2022-08-16T22:15:34.035Z,97339.97
2022-08-16T22:17:35.575Z,97336.03
2022-08-16T22:19:38.798Z,97343.63
2022-08-16T22:21:40.100Z,97339.50
2022-08-16T22:23:41.423Z,97335.78
2022-08-16T22:25:42.792Z,97337.03
2022-08-16T22:27:44.103Z,97343.38
2022-08-16T22:29:45.431Z,97338.81
2022-08-16T22:31:48.535Z,97345.44
2022-08-16T22:33:50.067Z,97345.34
2022-08-16T22:35:51.370Z,97341.13
2022-08-16T22:38:10.702Z,97347.66
2022-08-16T22:40:15.913Z,97344.22
2022-08-16T22:42:18.180Z,97344.09
2022-08-16T22:44:19.503Z,97341.88
2022-08-16T22:46:20.878Z,97346.28
2022-08-16T22:48:22.614Z,97347.03
2022-08-16T22:50:24.615Z,97353.34
2022-08-16T22:52:56.833Z,97357.00
2022-08-16T22:54:48.585Z,97353.94
2022-08-16T22:56:50.514Z,97361.34
2022-08-16T22:58:51.836Z,97349.34
2022-08-16T23:00:53.187Z,97358.19
2022-08-16T23:02:54.492Z,97356.56
2022-08-16T23:04:56.297Z,97355.63
2022-08-16T23:06:57.664Z,97354.06
2022-08-16T23:08:59.157Z,97351.53
2022-08-16T23:11:00.543Z,97356.19
2022-08-16T23:13:02.523Z,97360.31
2022-08-16T23:15:04.675Z,97356.00
2022-08-16T23:17:07.403Z,97349.34
2022-08-16T23:19:08.808Z,97354.53
2022-08-16T23:21:10.134Z,97355.19
2022-08-16T23:23:19.868Z,97343.38
2022-08-16T23:25:22.669Z,97349.22
2022-08-16T23:27:24.210Z,97343.41
2022-08-16T23:29:26.728Z,97348.94
2022-08-16T23:31:28.143Z,97347.16
2022-08-16T23:33:29.734Z,97350.41
2022-08-16T23:35:45.635Z,97355.81
2022-08-16T23:37:47.827Z,97351.03
2022-08-16T23:39:49.219Z,97351.81
2022-08-16T23:41:55.987Z,97346.50
2022-08-16T23:43:57.307Z,97343.94
2022-08-16T23:45:59.097Z,97339.88
2022-08-16T23:48:02.140Z,97336.16
2022-08-16T23:50:04.300Z,97351.03
2022-08-16T23:52:05.724Z,97346.78
2022-08-16T23:54:11.479Z,97340.16
2022-08-16T23:56:12.823Z,97342.66
2022-08-16T23:58:14.485Z,97343.66
